TimeCDT,TemperatureF,Dew PointF,Humidity,Sea Level PressureIn,VisibilityMPH,Wind Direction,Wind SpeedMPH,Gust SpeedMPH,PrecipitationIn,Events,Conditions,WindDirDegrees,DateUTC
12:53 AM,37.0,26.1,65,30.32,10.0,NNW,10.4,-,N/A,,Mostly Cloudy,330,2013-04-24 05:53:00
1:53 AM,37.0,26.1,65,30.32,10.0,NNW,19.6,23.0,N/A,,Clear,340,2013-04-24 06:53:00
2:53 AM,36.0,26.1,67,30.30,10.0,NNW,13.8,-,N/A,,Clear,340,2013-04-24 07:53:00
3:53 AM,34.0,26.1,73,30.29,10.0,NNW,9.2,-,N/A,,Clear,340,2013-04-24 08:53:00
5:53 AM,33.1,27.0,78,30.32,10.0,North,11.5,-,N/A,,Clear,360,2013-04-24 10:53:00
6:53 AM,30.9,26.1,82,30.35,10.0,North,4.6,-,N/A,,Clear,350,2013-04-24 11:53:00
7:53 AM,35.1,28.0,76,30.34,10.0,North,9.2,-,N/A,,Clear,350,2013-04-24 12:53:00
8:53 AM,41.0,28.0,60,30.36,10.0,NNE,8.1,-,N/A,,Clear,30,2013-04-24 13:53:00
9:53 AM,45.0,27.0,49,30.36,10.0,North,11.5,-,N/A,,Clear,360,2013-04-24 14:53:00
10:53 AM,48.0,28.0,46,30.36,10.0,NNE,9.2,-,N/A,,Clear,20,2013-04-24 15:53:00
11:53 AM,50.0,28.9,44,30.35,10.0,Variable,5.8,-,N/A,,Clear,0,2013-04-24 16:53:00
12:53 PM,53.1,28.0,38,30.32,10.0,North,12.7,-,N/A,,Clear,360,2013-04-24 17:53:00
1:53 PM,55.9,28.9,36,30.30,10.0,North,8.1,-,N/A,,Clear,360,2013-04-24 18:53:00
2:53 PM,57.9,30.9,36,30.28,10.0,NE,6.9,-,N/A,,Clear,40,2013-04-24 19:53:00
3:53 PM,60.1,30.0,32,30.25,10.0,NNE,11.5,17.3,N/A,,Clear,20,2013-04-24 20:53:00
4:53 PM,60.1,30.0,32,30.23,10.0,East,8.1,-,N/A,,Clear,90,2013-04-24 21:53:00
5:53 PM,59.0,30.0,33,30.24,10.0,East,9.2,-,N/A,,Clear,80,2013-04-24 22:53:00
6:53 PM,57.0,30.9,37,30.25,10.0,ENE,9.2,-,N/A,,Clear,70,2013-04-24 23:53:00
7:53 PM,53.1,37.0,55,30.27,10.0,ENE,5.8,-,N/A,,Clear,70,2013-04-25 00:53:00
8:53 PM,51.1,32.0,48,30.28,10.0,NE,5.8,-,N/A,,Clear,40,2013-04-25 01:53:00
9:53 PM,48.0,32.0,54,30.31,10.0,NE,4.6,-,N/A,,Clear,50,2013-04-25 02:53:00
10:53 PM,41.0,34.0,76,30.33,10.0,Calm,Calm,-,N/A,,Clear,0,2013-04-25 03:53:00
11:53 PM,37.9,34.0,86,30.33,10.0,Calm,Calm,-,N/A,,Clear,0,2013-04-25 04:53:00